createdAt,value
2023-05-24T00:06:20.734Z,19.67
2023-05-24T00:13:57.935Z,19.58
2023-05-24T00:16:24.647Z,19.59
2023-05-24T00:18:52.229Z,19.59
2023-05-24T00:21:18.833Z,19.50
2023-05-24T00:24:32.166Z,19.51
2023-05-24T01:32:31.839Z,19.31
2023-05-24T01:35:28.319Z,19.22
2023-05-24T01:38:17.400Z,19.10
2023-05-24T01:40:47.184Z,19.03
2023-05-24T01:43:37.450Z,18.91
2023-05-24T01:46:27.461Z,19.00
2023-05-24T01:49:09.373Z,18.99
2023-05-24T01:52:22.145Z,19.00
2023-05-24T02:05:32.541Z,18.92
2023-05-24T02:07:59.569Z,18.84
2023-05-24T02:10:26.288Z,18.91
2023-05-24T04:11:44.564Z,19.43
2023-05-24T04:14:13.871Z,19.46
2023-05-24T04:16:41.709Z,19.46
2023-05-24T04:19:08.683Z,19.38
2023-05-24T04:21:37.981Z,19.45
2023-05-24T04:24:05.953Z,19.46
2023-05-24T04:26:34.214Z,19.26
2023-05-24T04:29:01.800Z,19.15
2023-05-24T04:31:30.400Z,19.14
2023-05-24T04:33:59.225Z,19.02
2023-05-24T04:36:26.315Z,19.00
2023-05-24T04:44:25.197Z,19.12
2023-05-24T04:46:52.069Z,19.22
2023-05-24T04:57:40.986Z,19.25
2023-05-24T05:00:08.378Z,19.49
2023-05-24T05:06:43.427Z,19.37
2023-05-24T05:09:12.907Z,19.44
2023-05-24T05:11:40.524Z,19.53
2023-05-24T05:14:09.884Z,19.59
2023-05-24T05:16:37.817Z,19.62
2023-05-24T05:19:05.105Z,19.82
2023-05-24T05:21:34.969Z,19.95
2023-05-24T05:24:11.572Z,19.98
2023-05-24T05:26:48.204Z,20.13
2023-05-24T05:29:14.881Z,20.19
2023-05-24T05:31:45.549Z,20.18
2023-05-24T05:34:12.311Z,20.06
2023-05-24T05:36:40.958Z,19.91
2023-05-24T05:39:11.004Z,20.19
2023-05-24T05:41:45.640Z,20.18
2023-05-24T05:44:12.962Z,20.31
2023-05-24T05:46:39.970Z,20.38
2023-05-24T05:49:06.909Z,20.40
2023-05-24T05:51:33.514Z,20.60
2023-05-24T05:54:00.137Z,20.62
2023-05-24T05:56:27.789Z,20.61
2023-05-24T05:58:54.470Z,20.62
2023-05-24T06:01:21.437Z,20.59
2023-05-24T06:03:48.308Z,20.70
2023-05-24T06:06:14.987Z,20.62
2023-05-24T06:08:41.877Z,20.79
2023-05-24T06:11:08.456Z,20.93
2023-05-24T06:13:35.131Z,20.87
2023-05-24T06:16:04.801Z,21.00
2023-05-24T06:18:32.642Z,20.96
2023-05-24T06:20:59.196Z,21.12
2023-05-24T06:23:25.977Z,21.19
2023-05-24T06:25:52.580Z,20.95
2023-05-24T06:28:19.292Z,21.18
2023-05-24T06:30:48.006Z,21.38
2023-05-24T06:33:14.654Z,21.44
2023-05-24T06:36:02.876Z,21.62
2023-05-24T06:38:30.210Z,21.74
2023-05-24T06:40:56.820Z,21.83
2023-05-24T06:43:23.808Z,21.76
2023-05-24T06:49:51.186Z,22.13
2023-05-24T06:52:17.824Z,22.18
2023-05-24T06:54:50.609Z,22.16
2023-05-24T06:57:17.262Z,22.25
2023-05-24T06:59:43.919Z,22.30
2023-05-24T07:02:10.696Z,22.32
2023-05-24T07:04:37.341Z,22.34
2023-05-24T07:07:04.205Z,22.52
2023-05-24T07:09:31.501Z,22.58
2023-05-24T07:11:58.540Z,22.68
2023-05-24T07:14:27.370Z,22.83
2023-05-24T07:16:57.551Z,22.94
2023-05-24T07:19:28.975Z,22.93
2023-05-24T07:21:57.979Z,23.09
2023-05-24T07:24:25.553Z,23.02
2023-05-24T07:26:53.635Z,22.89
2023-05-24T07:29:22.061Z,23.00
2023-05-24T07:31:49.680Z,22.70
2023-05-24T07:34:16.387Z,22.77
2023-05-24T07:36:42.955Z,22.92
2023-05-24T07:39:10.285Z,23.01
2023-05-24T07:41:37.234Z,23.03
2023-05-24T07:44:04.346Z,22.87
2023-05-24T07:46:31.017Z,23.22
2023-05-24T07:48:57.645Z,23.34
2023-05-24T07:51:24.261Z,23.55
2023-05-24T07:53:50.991Z,23.67
2023-05-24T07:56:17.699Z,23.71
2023-05-24T07:58:46.720Z,23.70
2023-05-24T08:01:13.372Z,23.94
2023-05-24T08:03:41.358Z,23.81
2023-05-24T08:06:08.523Z,23.99
2023-05-24T08:08:35.741Z,23.78
2023-05-24T08:13:37.681Z,23.56
2023-05-24T08:16:04.309Z,23.61
2023-05-24T08:18:30.986Z,23.57
2023-05-24T08:20:57.586Z,23.64
2023-05-24T08:23:26.606Z,23.68
2023-05-24T08:25:55.388Z,23.68
2023-05-24T08:28:24.316Z,23.83
2023-05-24T08:30:51.000Z,23.94
2023-05-24T08:33:17.703Z,23.95
2023-05-24T08:38:19.601Z,24.12
2023-05-24T08:40:47.619Z,24.04
2023-05-24T08:43:22.441Z,24.26
2023-05-24T08:59:05.116Z,24.14
2023-05-24T09:01:36.690Z,23.71
2023-05-24T09:04:26.036Z,23.83
2023-05-24T09:06:56.217Z,24.11
2023-05-24T09:09:27.438Z,23.96
2023-05-24T09:12:35.448Z,24.09
2023-05-24T09:15:05.823Z,24.24
2023-05-24T09:17:34.218Z,24.27
2023-05-24T09:20:01.212Z,24.19
2023-05-24T09:22:30.616Z,24.20
2023-05-24T09:25:01.511Z,24.36
2023-05-24T09:27:29.121Z,24.52
2023-05-24T09:30:03.719Z,24.40
2023-05-24T09:32:34.316Z,24.37
2023-05-24T09:35:01.214Z,24.25
2023-05-24T09:37:32.326Z,24.29
2023-05-24T09:39:59.736Z,24.22
2023-05-24T09:42:28.236Z,24.47
2023-05-24T09:45:10.557Z,24.45
2023-05-24T09:47:41.158Z,24.45
2023-05-24T09:50:20.221Z,24.61
2023-05-24T09:52:47.490Z,24.70
2023-05-24T09:55:20.481Z,24.72
2023-05-24T09:57:53.227Z,24.73
2023-05-24T10:00:23.312Z,24.93
2023-05-24T10:03:13.913Z,24.91
2023-05-24T10:05:45.826Z,24.79
2023-05-24T10:08:14.373Z,24.83
2023-05-24T10:10:49.381Z,24.99
2023-05-24T10:13:17.738Z,25.13
2023-05-24T10:15:45.433Z,25.17
2023-05-24T10:18:13.842Z,25.16
2023-05-24T10:20:45.135Z,25.22
2023-05-24T10:23:19.824Z,25.57
2023-05-24T10:34:21.858Z,25.53
2023-05-24T10:36:50.520Z,26.08
2023-05-24T10:48:12.956Z,25.47
2023-05-24T10:50:43.219Z,25.56
2023-05-24T10:53:16.204Z,25.57
2023-05-24T10:56:06.291Z,25.80
2023-05-24T10:58:59.113Z,25.70
2023-05-24T11:01:33.978Z,25.59
2023-05-24T11:04:11.869Z,25.80
2023-05-24T11:07:01.557Z,26.02
2023-05-24T11:09:28.236Z,26.17
2023-05-24T11:11:57.342Z,25.76
2023-05-24T11:17:02.508Z,25.92
2023-05-24T11:19:47.870Z,26.10
2023-05-24T11:22:15.403Z,25.99
2023-05-24T11:24:42.773Z,25.84
2023-05-24T11:27:12.968Z,25.85
2023-05-24T11:29:52.164Z,25.81
2023-05-24T11:32:21.281Z,25.89
2023-05-24T11:34:49.004Z,26.13
2023-05-24T11:37:17.505Z,25.99
2023-05-24T11:39:51.022Z,26.19
2023-05-24T11:42:17.878Z,26.00
2023-05-24T11:44:44.805Z,26.03
2023-05-24T11:47:13.412Z,26.11
2023-05-24T11:49:40.086Z,25.96
2023-05-24T11:52:07.442Z,26.03
2023-05-24T11:54:34.999Z,26.23
2023-05-24T11:57:02.200Z,26.22
2023-05-24T11:59:29.549Z,26.24
2023-05-24T12:02:04.676Z,26.21
2023-05-24T12:04:32.641Z,26.40
2023-05-24T12:06:59.641Z,26.51
2023-05-24T12:09:27.738Z,26.50
2023-05-24T12:11:54.632Z,26.34
2023-05-24T12:14:27.928Z,26.24
2023-05-24T12:16:59.034Z,25.83
2023-05-24T12:19:33.891Z,25.86
2023-05-24T12:22:01.992Z,26.25
2023-05-24T12:24:31.407Z,26.37
2023-05-24T12:27:01.951Z,26.40
2023-05-24T12:29:34.388Z,26.35
2023-05-24T12:32:01.239Z,26.47
2023-05-24T12:34:27.991Z,26.63
2023-05-24T12:36:56.726Z,26.21
2023-05-24T12:39:37.862Z,25.94
2023-05-24T12:42:07.452Z,26.19
2023-05-24T12:44:43.403Z,26.19
2023-05-24T12:47:13.266Z,26.25
2023-05-24T12:49:42.276Z,26.14
2023-05-24T12:52:10.898Z,26.13
2023-05-24T12:54:39.541Z,26.18
2023-05-24T12:57:06.423Z,26.21
2023-05-24T12:59:33.828Z,25.85
2023-05-24T13:02:00.814Z,25.89
2023-05-24T13:04:28.137Z,26.16
2023-05-24T13:06:55.238Z,26.18
2023-05-24T13:09:23.457Z,26.29
2023-05-24T13:11:50.858Z,26.35
2023-05-24T13:14:18.563Z,26.45
2023-05-24T13:16:47.483Z,26.44
2023-05-24T13:19:19.852Z,26.24
2023-05-24T13:21:46.588Z,26.04
2023-05-24T13:24:16.111Z,26.02
2023-05-24T13:26:43.203Z,26.00
2023-05-24T13:31:46.879Z,26.38
2023-05-24T13:34:14.876Z,26.15
2023-05-24T13:36:43.036Z,26.03
2023-05-24T13:39:16.034Z,25.84
2023-05-24T13:41:43.572Z,25.97
2023-05-24T13:44:10.843Z,26.12
2023-05-24T13:46:37.888Z,26.19
2023-05-24T13:49:05.385Z,26.17
2023-05-24T13:54:17.684Z,26.05
2023-05-24T13:56:45.131Z,26.07
2023-05-24T13:59:15.626Z,26.04
2023-05-24T14:01:42.787Z,25.91
2023-05-24T14:04:09.473Z,26.01
2023-05-24T14:06:40.844Z,26.01
2023-05-24T14:09:08.462Z,25.88
2023-05-24T14:11:36.648Z,25.71
2023-05-24T14:16:33.352Z,25.77
2023-05-24T14:19:00.033Z,25.65
2023-05-24T14:21:27.210Z,25.58
2023-05-24T14:23:56.796Z,25.72
2023-05-24T14:26:23.612Z,25.72
2023-05-24T14:28:56.024Z,25.84
2023-05-24T14:34:04.752Z,25.67
2023-05-24T14:36:31.751Z,25.83
2023-05-24T14:38:58.340Z,25.75
2023-05-24T14:41:24.967Z,25.55
2023-05-24T14:43:51.724Z,25.48
2023-05-24T14:46:21.302Z,25.69
2023-05-24T14:48:48.011Z,25.68
2023-05-24T14:51:14.632Z,25.68
2023-05-24T14:53:41.289Z,25.56
2023-05-24T14:56:09.901Z,25.51
2023-05-24T14:58:40.452Z,25.32
2023-05-24T15:01:08.438Z,25.40
2023-05-24T15:03:35.835Z,25.50
2023-05-24T15:06:03.287Z,25.43
2023-05-24T15:08:29.882Z,25.49
2023-05-24T15:10:58.748Z,25.48
2023-05-24T15:13:25.910Z,25.56
2023-05-24T15:15:54.805Z,25.25
2023-05-24T15:18:21.571Z,25.33
2023-05-24T15:20:48.595Z,25.29
2023-05-24T15:23:15.593Z,25.13
2023-05-24T15:25:44.080Z,25.07
2023-05-24T15:28:12.924Z,24.88
2023-05-24T15:30:39.667Z,24.96
2023-05-24T15:33:07.226Z,25.05
2023-05-24T15:35:33.869Z,24.96
2023-05-24T15:38:06.730Z,24.98
2023-05-24T15:40:46.022Z,24.86
2023-05-24T15:43:19.180Z,24.91
2023-05-24T15:45:49.043Z,24.86
2023-05-24T15:48:15.734Z,24.84
2023-05-24T15:51:39.896Z,24.87
2023-05-24T15:54:04.772Z,24.58
2023-05-24T15:56:39.165Z,24.80
2023-05-24T15:59:05.798Z,24.85
2023-05-24T16:01:32.453Z,24.87
2023-05-24T16:04:00.065Z,24.84
2023-05-24T16:06:28.677Z,24.76
2023-05-24T16:08:55.299Z,24.88
2023-05-24T16:19:34.899Z,24.22
2023-05-24T16:22:03.754Z,24.51
2023-05-24T16:24:33.352Z,24.55
2023-05-24T16:27:02.787Z,24.62
2023-05-24T16:29:29.741Z,24.45
2023-05-24T16:31:59.081Z,24.53
2023-05-24T16:37:03.939Z,24.46
2023-05-24T16:39:30.662Z,24.49
2023-05-24T16:41:59.059Z,24.45
2023-05-24T16:44:27.586Z,24.21
2023-05-24T16:46:54.242Z,24.44
2023-05-24T16:49:21.093Z,24.45
2023-05-24T16:57:04.867Z,24.39
2023-05-24T16:59:31.643Z,24.22
2023-05-24T17:01:58.310Z,24.30
2023-05-24T17:04:24.975Z,24.33
2023-05-24T17:06:56.729Z,24.32
2023-05-24T17:09:23.292Z,24.37
2023-05-24T17:11:51.006Z,24.33
2023-05-24T17:14:17.833Z,24.29
2023-05-24T17:16:44.511Z,24.10
2023-05-24T17:19:12.757Z,24.14
2023-05-24T17:21:40.697Z,24.12
2023-05-24T17:24:07.362Z,24.27
2023-05-24T17:26:34.550Z,24.20
2023-05-24T17:29:01.227Z,24.17
2023-05-24T17:31:27.887Z,24.21
2023-05-24T17:33:54.691Z,24.11
2023-05-24T17:36:21.419Z,24.11
2023-05-24T17:38:47.990Z,24.03
2023-05-24T17:41:14.581Z,23.97
2023-05-24T17:43:41.988Z,23.86
2023-05-24T17:46:09.488Z,23.87
2023-05-24T17:48:37.697Z,23.92
2023-05-24T17:51:06.537Z,23.79
2023-05-24T17:53:34.915Z,23.85
2023-05-24T17:56:02.798Z,23.88
2023-05-24T17:58:36.421Z,23.94
2023-05-24T18:01:07.797Z,23.89
2023-05-24T18:03:38.505Z,23.89
2023-05-24T18:06:06.664Z,23.81
2023-05-24T18:08:35.295Z,23.76
2023-05-24T18:11:07.918Z,23.68
2023-05-24T18:13:34.687Z,23.74
2023-05-24T18:16:02.281Z,23.78
2023-05-24T18:18:29.543Z,23.66
2023-05-24T18:20:56.163Z,23.62
2023-05-24T18:23:22.934Z,23.60
2023-05-24T18:25:49.768Z,23.43
2023-05-24T18:28:16.440Z,23.42
2023-05-24T18:30:43.100Z,23.34
2023-05-24T18:33:09.768Z,23.34
2023-05-24T18:35:36.473Z,23.29
2023-05-24T18:38:04.060Z,23.25
2023-05-24T18:40:30.746Z,23.14
2023-05-24T18:42:57.512Z,23.08
2023-05-24T18:45:24.223Z,23.08
2023-05-24T18:47:51.002Z,23.02
2023-05-24T18:50:23.196Z,22.92
2023-05-24T18:52:50.400Z,22.89
2023-05-24T18:55:17.396Z,22.75
2023-05-24T18:57:44.060Z,22.72
2023-05-24T19:00:11.749Z,22.66
2023-05-24T19:02:39.590Z,22.51
2023-05-24T19:05:07.285Z,22.53
2023-05-24T19:07:35.023Z,22.43
2023-05-24T19:10:01.873Z,22.44
2023-05-24T19:12:28.610Z,22.37
2023-05-24T19:14:55.257Z,22.40
2023-05-24T19:17:23.969Z,22.31
2023-05-24T19:19:50.760Z,22.28
2023-05-24T19:22:17.419Z,22.28
2023-05-24T19:24:44.047Z,22.32
2023-05-24T19:27:10.673Z,22.28
2023-05-24T19:29:37.495Z,22.17
2023-05-24T19:32:04.483Z,22.16
2023-05-24T19:34:32.041Z,22.10
2023-05-24T19:36:58.629Z,22.13
2023-05-24T19:39:25.323Z,22.13
2023-05-24T19:41:54.635Z,22.10
2023-05-24T19:44:21.617Z,22.11
2023-05-24T19:46:48.236Z,22.14
2023-05-24T19:49:14.838Z,22.16
2023-05-24T19:51:41.489Z,22.14
2023-05-24T19:54:11.129Z,21.99
2023-05-24T19:56:37.858Z,21.93
2023-05-24T19:59:04.524Z,21.88
2023-05-24T20:01:31.250Z,21.85
2023-05-24T20:03:58.081Z,21.77
2023-05-24T20:06:24.772Z,21.78
2023-05-24T20:08:52.467Z,21.72
2023-05-24T20:11:19.098Z,21.70
2023-05-24T20:13:45.677Z,21.54
2023-05-24T20:16:12.383Z,21.48
2023-05-24T20:18:39.072Z,21.47
2023-05-24T20:21:05.734Z,21.46
2023-05-24T20:23:32.340Z,21.43
2023-05-24T20:25:58.965Z,21.36
2023-05-24T20:28:30.821Z,21.30
2023-05-24T20:30:59.144Z,21.31
2023-05-24T20:33:25.761Z,21.24
2023-05-24T20:35:55.620Z,21.28
2023-05-24T20:38:23.604Z,21.36
2023-05-24T20:40:50.208Z,21.37
2023-05-24T20:43:16.968Z,21.38
2023-05-24T20:45:43.716Z,21.40
2023-05-24T20:48:10.611Z,21.41
2023-05-24T20:50:37.254Z,21.38
2023-05-24T20:53:03.815Z,21.34
2023-05-24T20:55:31.182Z,21.29
2023-05-24T20:57:57.828Z,21.22
2023-05-24T21:00:24.451Z,21.12
2023-05-24T21:02:51.384Z,20.96
2023-05-24T21:05:18.072Z,20.87
2023-05-24T21:07:44.667Z,20.86
2023-05-24T21:10:17.516Z,20.93
2023-05-24T21:12:44.469Z,21.00
2023-05-24T21:15:12.403Z,20.99
2023-05-24T21:17:39.254Z,21.02
2023-05-24T21:20:06.561Z,20.94
2023-05-24T21:22:33.216Z,20.96
2023-05-24T21:24:59.796Z,20.96
2023-05-24T21:27:27.416Z,20.94
2023-05-24T21:29:54.007Z,20.93
2023-05-24T21:32:20.810Z,20.88
2023-05-24T21:34:47.415Z,20.88
2023-05-24T21:37:14.005Z,20.76
2023-05-24T21:39:40.906Z,20.76
2023-05-24T21:42:07.510Z,20.70
2023-05-24T21:44:34.082Z,20.55
2023-05-24T21:47:00.751Z,20.57
2023-05-24T21:49:27.646Z,20.62
2023-05-24T21:51:54.194Z,20.59
2023-05-24T21:54:20.921Z,20.52
2023-05-24T21:56:47.498Z,20.50
2023-05-24T21:59:14.893Z,20.49
2023-05-24T22:01:41.879Z,20.51
2023-05-24T22:04:09.227Z,20.43
2023-05-24T22:06:36.461Z,20.43
2023-05-24T22:09:03.256Z,20.41
2023-05-24T22:11:29.846Z,20.41
2023-05-24T22:13:56.674Z,20.40
2023-05-24T22:16:24.046Z,20.39
2023-05-24T22:18:55.780Z,20.36
2023-05-24T22:21:22.826Z,20.33
2023-05-24T22:23:51.425Z,20.28
2023-05-24T22:26:17.997Z,20.23
2023-05-24T22:28:52.568Z,20.24
2023-05-24T22:31:19.877Z,20.22
2023-05-24T22:33:49.681Z,20.27
2023-05-24T22:36:16.413Z,20.19
2023-05-24T22:38:44.000Z,20.04
2023-05-24T22:41:10.718Z,19.95
2023-05-24T22:43:37.412Z,19.86
2023-05-24T22:46:04.167Z,19.82
2023-05-24T22:48:33.891Z,19.66
2023-05-24T22:51:00.897Z,19.57
2023-05-24T22:53:27.825Z,19.49
2023-05-24T22:55:54.449Z,19.52
2023-05-24T22:58:24.393Z,19.60
2023-05-24T23:00:51.838Z,19.52
2023-05-24T23:03:18.484Z,19.60
2023-05-24T23:05:45.811Z,19.51
2023-05-24T23:08:15.390Z,19.45
2023-05-24T23:10:48.035Z,19.43
2023-05-24T23:13:16.648Z,19.43
2023-05-24T23:15:45.095Z,19.45
2023-05-24T23:18:15.966Z,19.43
2023-05-24T23:20:44.322Z,19.52
2023-05-24T23:23:11.235Z,19.66
2023-05-24T23:25:37.889Z,19.74
2023-05-24T23:28:04.705Z,19.77
2023-05-24T23:30:31.625Z,19.77
2023-05-24T23:32:59.834Z,19.80
2023-05-24T23:35:26.480Z,19.75
2023-05-24T23:37:53.788Z,19.71
2023-05-24T23:40:20.576Z,19.67
2023-05-24T23:42:47.410Z,19.67
2023-05-24T23:45:15.716Z,19.67
2023-05-24T23:47:42.358Z,19.56
2023-05-24T23:50:09.536Z,19.61
2023-05-24T23:52:36.350Z,19.55
2023-05-24T23:55:03.721Z,19.46
2023-05-24T23:57:30.569Z,19.52
2023-05-24T23:59:57.161Z,19.47
